Terminal Aerodrome Forecast
Issued by NWS

Current Version | Previous Version | Text Only | Print | Product List | Glossary Off
Versions: 1 2 3 4 5 6 7 8 9 10 11 12 13 14 15 16 17 18 19 20 21

000
FTUS41 KRLX 220800 AAA
TAFCKB
TAF AMD
KCKB 220803Z 2208/2306 00000KT 6SM BR FEW045
     FM220900 00000KT 4SM BR FEW001
      TEMPO 2210/2212 3/4SM BR BKN001
     FM221200 VRB03KT 4SM HZ FEW002 FEW045
     FM221300 VRB03KT P6SM SCT045=

USA.gov is the U.S. government's official web portal to all federal, state and local government web resources and services.